createdAt,value
2022-09-01T00:00:08.292Z,21.40
2022-09-01T00:02:36.592Z,21.60
2022-09-01T00:05:07.409Z,21.70
2022-09-01T00:07:36.429Z,21.50
2022-09-01T00:10:08.873Z,21.80
2022-09-01T00:12:38.186Z,21.90
2022-09-01T00:15:11.440Z,21.60
2022-09-01T00:17:39.690Z,21.50
2022-09-01T00:20:09.478Z,21.50
2022-09-01T00:22:37.728Z,21.90
2022-09-01T00:25:07.933Z,21.90
2022-09-01T00:27:36.609Z,22.30
2022-09-01T00:30:08.641Z,22.10
2022-09-01T00:32:37.102Z,22.40
2022-09-01T00:35:06.701Z,21.70
2022-09-01T00:37:34.717Z,23.00
2022-09-01T00:40:02.869Z,22.10
2022-09-01T00:42:30.938Z,22.30
2022-09-01T00:44:58.977Z,22.00
2022-09-01T00:47:29.581Z,22.10
2022-09-01T00:49:57.720Z,22.10
2022-09-01T00:52:33.168Z,22.50
2022-09-01T00:55:06.225Z,22.80
2022-09-01T00:57:34.561Z,22.30
2022-09-01T01:00:11.161Z,22.60
2022-09-01T01:02:42.541Z,22.70
2022-09-01T01:05:14.199Z,23.00
2022-09-01T01:07:47.420Z,23.10
2022-09-01T01:10:19.039Z,23.60
2022-09-01T01:12:53.900Z,23.50
2022-09-01T01:15:22.394Z,23.70
2022-09-01T01:17:51.786Z,23.80
2022-09-01T01:20:40.514Z,24.20
2022-09-01T01:23:19.532Z,24.00
2022-09-01T01:25:51.768Z,24.30
2022-09-01T01:28:27.864Z,24.10
2022-09-01T01:31:01.357Z,24.10
2022-09-01T01:33:42.938Z,24.00
2022-09-01T01:36:17.569Z,24.40
2022-09-01T01:38:49.081Z,24.10
2022-09-01T01:41:19.803Z,24.30
2022-09-01T01:43:48.872Z,24.50
2022-09-01T01:46:19.093Z,24.40
2022-09-01T01:48:48.581Z,24.40
2022-09-01T01:51:21.136Z,24.50
2022-09-01T01:53:52.570Z,24.30
2022-09-01T01:56:25.524Z,24.30
2022-09-01T01:58:56.374Z,24.40
2022-09-01T02:01:28.598Z,24.40
2022-09-01T02:03:57.868Z,24.40
2022-09-01T02:06:29.780Z,24.50
2022-09-01T02:08:59.088Z,24.50
2022-09-01T02:11:28.977Z,24.40
2022-09-01T02:13:57.729Z,24.40
2022-09-01T02:16:29.688Z,24.60
2022-09-01T02:18:57.781Z,24.80
2022-09-01T02:21:27.214Z,25.00
2022-09-01T02:24:01.039Z,25.30
2022-09-01T02:26:34.028Z,25.00
2022-09-01T02:29:05.765Z,25.00
2022-09-01T02:31:39.135Z,25.10
2022-09-01T02:34:10.522Z,24.90
2022-09-01T02:36:42.406Z,25.50
2022-09-01T02:39:10.557Z,25.30
2022-09-01T02:41:41.570Z,25.20
2022-09-01T02:44:12.524Z,24.90
2022-09-01T02:46:43.044Z,24.60
2022-09-01T02:49:15.236Z,24.70
2022-09-01T02:51:44.233Z,24.60
2022-09-01T02:54:15.331Z,24.50
2022-09-01T02:56:47.993Z,25.00
2022-09-01T02:59:16.184Z,24.80
2022-09-01T03:01:47.404Z,24.60
2022-09-01T03:04:15.903Z,24.90
2022-09-01T03:06:44.356Z,25.00
2022-09-01T03:09:15.822Z,25.00
2022-09-01T03:11:47.788Z,24.90
2022-09-01T03:14:16.934Z,25.20
2022-09-01T03:16:45.152Z,25.20
2022-09-01T03:19:14.353Z,25.10
2022-09-01T03:21:46.029Z,25.40
2022-09-01T03:24:17.794Z,25.20
2022-09-01T03:26:50.384Z,25.20
2022-09-01T03:29:18.826Z,25.80
2022-09-01T03:31:47.322Z,25.60
2022-09-01T03:34:16.313Z,25.70
2022-09-01T03:36:49.999Z,25.50
2022-09-01T03:39:19.083Z,25.50
2022-09-01T03:41:48.681Z,25.50
2022-09-01T03:44:16.821Z,25.30
2022-09-01T03:46:46.097Z,25.40
2022-09-01T03:49:15.180Z,25.30
2022-09-01T03:51:44.754Z,25.50
2022-09-01T03:54:13.651Z,25.50
2022-09-01T03:56:43.726Z,25.30
2022-09-01T03:59:16.708Z,25.60
2022-09-01T04:01:46.749Z,25.60
2022-09-01T04:04:15.279Z,25.40
2022-09-01T04:06:44.942Z,25.50
2022-09-01T04:09:13.398Z,25.30
2022-09-01T04:11:45.689Z,25.80
2022-09-01T04:14:15.849Z,25.60
2022-09-01T04:17:03.157Z,25.90
2022-09-01T04:19:36.744Z,25.50
2022-09-01T04:22:05.807Z,26.50
2022-09-01T04:24:34.998Z,26.40
2022-09-01T04:27:07.264Z,25.20
2022-09-01T04:29:37.013Z,25.30
2022-09-01T04:32:12.640Z,25.30
2022-09-01T04:34:41.943Z,26.40
2022-09-01T04:37:14.745Z,25.40
2022-09-01T04:39:51.446Z,25.50
2022-09-01T04:42:24.135Z,25.80
2022-09-01T04:44:54.534Z,26.50
2022-09-01T04:47:29.919Z,25.80
2022-09-01T04:50:13.573Z,25.90
2022-09-01T04:52:42.993Z,26.60
2022-09-01T04:55:17.267Z,26.60
2022-09-01T04:57:49.289Z,26.60
2022-09-01T05:00:25.413Z,26.60
2022-09-01T05:03:01.126Z,26.70
2022-09-01T05:05:29.185Z,26.50
2022-09-01T05:07:57.347Z,26.90
2022-09-01T05:10:29.866Z,26.20
2022-09-01T05:12:58.162Z,27.00
2022-09-01T05:15:27.564Z,26.90
2022-09-01T05:18:02.201Z,26.70
2022-09-01T05:20:31.932Z,26.80
2022-09-01T05:23:00.278Z,26.50
2022-09-01T05:25:28.281Z,26.80
2022-09-01T05:27:56.673Z,27.50
2022-09-01T05:30:28.486Z,27.10
2022-09-01T05:32:57.886Z,26.90
2022-09-01T05:35:32.500Z,26.80
2022-09-01T05:38:01.013Z,26.90
2022-09-01T05:40:29.201Z,26.70
2022-09-01T05:42:59.096Z,27.20
2022-09-01T05:45:27.145Z,27.30
2022-09-01T05:47:55.206Z,26.90
2022-09-01T05:50:25.572Z,27.00
2022-09-01T05:52:53.616Z,27.00
2022-09-01T05:55:22.881Z,27.20
2022-09-01T05:57:51.000Z,25.50
2022-09-01T06:00:20.535Z,25.50
2022-09-01T06:02:48.827Z,25.30
2022-09-01T06:05:17.409Z,24.70
2022-09-01T06:07:47.108Z,24.90
2022-09-01T06:10:16.017Z,25.10
2022-09-01T06:12:45.264Z,24.50
2022-09-01T06:15:18.468Z,24.50
2022-09-01T06:17:47.142Z,24.10
2022-09-01T06:20:18.105Z,23.90
2022-09-01T06:22:48.855Z,23.60
2022-09-01T06:25:18.489Z,23.20
2022-09-01T06:27:48.447Z,23.20
2022-09-01T06:30:23.924Z,23.20
2022-09-01T06:32:53.113Z,23.20
2022-09-01T06:35:25.065Z,23.10
2022-09-01T06:37:56.336Z,23.10
2022-09-01T06:40:25.403Z,22.50
2022-09-01T06:42:54.810Z,22.20
2022-09-01T06:45:25.142Z,23.00
2022-09-01T06:47:57.605Z,21.90
2022-09-01T06:53:37.186Z,21.60
2022-09-01T06:56:08.164Z,22.40
2022-09-01T06:58:36.896Z,22.40
2022-09-01T07:01:14.532Z,22.40
2022-09-01T07:03:43.363Z,21.30
2022-09-01T07:06:59.501Z,21.80
2022-09-01T07:12:24.795Z,21.90
2022-09-01T07:17:30.550Z,20.90
2022-09-01T07:20:23.171Z,20.60
2022-09-01T07:28:39.889Z,21.00
2022-09-01T07:42:31.579Z,19.90
2022-09-01T07:42:31.811Z,19.50
2022-09-01T07:45:25.897Z,20.00
2022-09-01T07:47:54.850Z,19.50
2022-09-01T07:50:39.770Z,19.50
2022-09-01T07:53:11.065Z,19.10
2022-09-01T07:55:42.196Z,18.70
2022-09-01T07:58:14.173Z,18.60
2022-09-01T08:00:45.873Z,18.70
2022-09-01T08:03:14.544Z,18.50
2022-09-01T08:05:43.400Z,19.10
2022-09-01T08:08:19.151Z,18.50
2022-09-01T08:10:49.368Z,18.80
2022-09-01T08:13:21.804Z,18.30
2022-09-01T08:16:07.392Z,18.50
2022-09-01T08:18:52.068Z,18.20
2022-09-01T08:21:23.337Z,18.60
2022-09-01T08:23:52.292Z,18.30
2022-09-01T08:26:23.863Z,18.10
2022-09-01T08:28:55.539Z,18.00
2022-09-01T08:31:30.564Z,18.00
2022-09-01T08:33:59.974Z,18.20
2022-09-01T08:36:28.018Z,18.40
2022-09-01T08:38:56.093Z,18.40
2022-09-01T08:41:46.889Z,18.60
2022-09-01T08:44:30.569Z,18.10
2022-09-01T08:47:05.575Z,18.00
2022-09-01T08:49:44.639Z,18.40
2022-09-01T08:52:23.173Z,18.00
2022-09-01T08:54:55.336Z,18.20
2022-09-01T08:57:30.793Z,17.50
2022-09-01T09:00:00.687Z,17.30
2022-09-01T09:02:43.530Z,17.10
2022-09-01T09:05:40.076Z,17.50
2022-09-01T09:08:33.590Z,17.70
2022-09-01T09:11:05.930Z,18.10
2022-09-01T09:13:47.593Z,17.50
2022-09-01T09:16:22.799Z,17.60
2022-09-01T09:18:55.589Z,17.00
2022-09-01T09:21:29.991Z,16.80
2022-09-01T09:24:03.952Z,17.30
2022-09-01T09:26:47.820Z,17.30
2022-09-01T09:29:15.989Z,16.00
2022-09-01T09:31:49.851Z,16.60
2022-09-01T09:34:33.932Z,16.80
2022-09-01T09:37:24.650Z,17.00
2022-09-01T09:40:14.901Z,16.20
2022-09-01T09:43:02.535Z,15.70
2022-09-01T09:45:34.461Z,16.00
2022-09-01T09:48:10.921Z,16.40
2022-09-01T09:50:43.162Z,16.00
2022-09-01T09:53:19.063Z,16.90
2022-09-01T09:56:01.115Z,16.30
2022-09-01T09:58:37.012Z,14.90
2022-09-01T10:01:16.273Z,15.70
2022-09-01T10:03:50.290Z,14.80
2022-09-01T10:06:34.411Z,15.00
2022-09-01T10:09:07.133Z,15.80
2022-09-01T10:11:41.565Z,15.30
2022-09-01T10:14:35.354Z,15.50
2022-09-01T10:17:13.236Z,15.30
2022-09-01T10:19:50.720Z,15.40
2022-09-01T10:22:18.935Z,17.40
2022-09-01T10:24:50.509Z,16.90
2022-09-01T10:27:23.701Z,17.10
2022-09-01T10:30:14.167Z,18.20
2022-09-01T10:32:55.029Z,19.10
2022-09-01T10:35:30.656Z,18.00
2022-09-01T10:38:01.786Z,17.70
2022-09-01T10:40:43.953Z,17.80
2022-09-01T10:43:37.989Z,17.50
2022-09-01T10:46:49.559Z,16.90
2022-09-01T10:49:58.867Z,17.00
2022-09-01T10:53:10.561Z,16.90
2022-09-01T10:55:45.163Z,16.60
2022-09-01T11:02:36.885Z,15.40
2022-09-01T11:05:18.719Z,15.50
2022-09-01T11:08:14.832Z,15.40
2022-09-01T11:10:51.351Z,15.50
2022-09-01T11:13:38.638Z,15.40
2022-09-01T11:16:50.867Z,14.50
2022-09-01T11:19:44.547Z,15.40
2022-09-01T11:22:29.749Z,14.90
2022-09-01T11:25:39.656Z,14.30
2022-09-01T11:28:42.753Z,14.40
2022-09-01T11:31:41.726Z,13.00
2022-09-01T11:34:16.574Z,12.90
2022-09-01T11:37:01.106Z,13.90
2022-09-01T11:39:37.733Z,13.70
2022-09-01T11:42:14.535Z,13.90
2022-09-01T11:44:50.350Z,14.10
2022-09-01T11:47:22.204Z,14.20
2022-09-01T11:49:56.901Z,14.20
2022-09-01T11:52:30.014Z,14.40
2022-09-01T11:54:58.827Z,14.90
2022-09-01T11:57:31.773Z,14.80
2022-09-01T12:00:05.736Z,14.40
2022-09-01T12:02:37.676Z,14.60
2022-09-01T12:05:27.832Z,13.20
2022-09-01T12:07:56.979Z,14.60
2022-09-01T12:10:33.410Z,14.50
2022-09-01T12:13:08.121Z,14.60
2022-09-01T12:16:00.454Z,14.80
2022-09-01T12:18:31.819Z,14.50
2022-09-01T12:21:02.095Z,15.30
2022-09-01T12:23:33.463Z,13.90
2022-09-01T12:26:04.555Z,14.80
2022-09-01T12:28:35.206Z,14.70
2022-09-01T12:31:09.196Z,15.10
2022-09-01T12:33:38.114Z,14.40
2022-09-01T12:36:22.224Z,14.90
2022-09-01T12:38:51.388Z,13.70
2022-09-01T12:41:33.775Z,14.00
2022-09-01T12:44:30.994Z,14.20
2022-09-01T12:47:03.546Z,13.80
2022-09-01T12:49:50.171Z,13.40
2022-09-01T12:52:25.902Z,13.30
2022-09-01T12:55:11.327Z,13.20
2022-09-01T12:57:45.187Z,13.80
2022-09-01T13:00:20.264Z,13.40
2022-09-01T13:02:53.196Z,13.50
2022-09-01T13:05:33.628Z,13.70
2022-09-01T13:08:08.365Z,13.30
2022-09-01T13:10:39.961Z,14.10
2022-09-01T13:13:09.957Z,13.10
2022-09-01T13:15:43.776Z,13.20
2022-09-01T13:18:13.338Z,13.90
2022-09-01T13:20:42.675Z,13.60
2022-09-01T13:23:12.636Z,13.30
2022-09-01T13:25:41.500Z,13.60
2022-09-01T13:28:11.370Z,13.60
2022-09-01T13:30:41.097Z,13.80
2022-09-01T13:33:20.393Z,13.60
2022-09-01T13:35:51.309Z,13.70
2022-09-01T13:38:20.589Z,14.00
2022-09-01T13:40:51.315Z,13.50
2022-09-01T13:43:22.418Z,13.70
2022-09-01T13:45:51.593Z,13.60
2022-09-01T13:48:20.722Z,13.40
2022-09-01T13:53:41.032Z,14.30
2022-09-01T13:56:09.043Z,14.20
2022-09-01T13:58:37.141Z,14.40
2022-09-01T14:01:05.393Z,14.40
2022-09-01T14:03:33.533Z,15.00
2022-09-01T14:06:02.955Z,15.20
2022-09-01T14:08:33.257Z,15.10
2022-09-01T14:11:01.636Z,15.90
2022-09-01T14:13:31.114Z,15.40
2022-09-01T14:16:00.180Z,15.90
2022-09-01T14:18:32.870Z,16.10
2022-09-01T14:21:02.264Z,16.00
2022-09-01T14:23:30.791Z,13.80
2022-09-01T14:25:59.749Z,13.60
2022-09-01T14:28:27.949Z,13.80
2022-09-01T14:33:27.177Z,13.80
2022-09-01T14:35:55.276Z,13.40
2022-09-01T14:38:24.696Z,13.80
2022-09-01T14:40:53.237Z,13.80
2022-09-01T14:43:21.872Z,13.60
2022-09-01T14:45:50.444Z,13.60
2022-09-01T14:48:20.425Z,13.50
2022-09-01T14:50:50.783Z,13.90
2022-09-01T14:53:19.287Z,13.70
2022-09-01T14:55:51.500Z,13.40
2022-09-01T14:58:23.513Z,13.50
2022-09-01T15:00:51.702Z,13.40
2022-09-01T15:03:22.752Z,13.00
2022-09-01T15:05:51.455Z,12.80
2022-09-01T15:08:19.851Z,12.70
2022-09-01T15:10:49.423Z,12.10
2022-09-01T15:13:17.840Z,11.30
2022-09-01T15:15:45.884Z,11.30
2022-09-01T15:18:13.999Z,11.20
2022-09-01T15:20:46.169Z,11.90
2022-09-01T15:23:16.175Z,11.50
2022-09-01T15:25:45.111Z,11.90
2022-09-01T15:28:14.956Z,11.80
2022-09-01T15:30:46.485Z,11.90
2022-09-01T15:33:16.212Z,12.10
2022-09-01T15:35:45.549Z,12.20
2022-09-01T15:38:17.562Z,12.30
2022-09-01T15:40:50.294Z,12.30
2022-09-01T15:43:28.045Z,12.30
2022-09-01T15:45:58.074Z,12.50
2022-09-01T15:48:27.057Z,12.30
2022-09-01T15:51:03.422Z,12.00
2022-09-01T15:53:31.459Z,11.80
2022-09-01T15:55:59.769Z,11.40
2022-09-01T15:58:39.132Z,11.20
2022-09-01T16:01:18.284Z,11.30
2022-09-01T16:03:46.788Z,10.70
2022-09-01T16:06:15.064Z,10.40
2022-09-01T16:08:43.191Z,10.40
2022-09-01T16:11:12.724Z,10.30
2022-09-01T16:13:43.752Z,10.40
2022-09-01T16:16:30.846Z,10.70
2022-09-01T16:19:06.356Z,10.30
2022-09-01T16:21:46.312Z,9.70
2022-09-01T16:24:15.473Z,10.20
2022-09-01T16:26:49.028Z,9.80
2022-09-01T16:29:28.919Z,9.80
2022-09-01T16:31:57.637Z,10.10
2022-09-01T16:34:28.376Z,10.10
2022-09-01T16:37:07.082Z,9.90
2022-09-01T16:39:43.152Z,10.00
2022-09-01T16:42:23.249Z,10.20
2022-09-01T16:45:06.497Z,10.20
2022-09-01T16:47:51.121Z,9.70
2022-09-01T16:50:32.332Z,9.90
2022-09-01T16:53:20.440Z,9.70
2022-09-01T16:56:00.414Z,10.00
2022-09-01T16:58:43.529Z,10.60
2022-09-01T17:01:26.062Z,10.70
2022-09-01T17:04:12.475Z,10.20
2022-09-01T17:06:52.922Z,10.60
2022-09-01T17:09:28.682Z,10.40
2022-09-01T17:12:14.492Z,10.20
2022-09-01T17:14:51.932Z,10.40
2022-09-01T17:17:27.881Z,9.70
2022-09-01T17:19:55.945Z,10.10
2022-09-01T17:22:25.161Z,9.90
2022-09-01T17:25:00.623Z,10.10
2022-09-01T17:27:35.070Z,10.00
2022-09-01T17:30:04.198Z,9.70
2022-09-01T17:33:13.021Z,9.80
2022-09-01T17:36:04.661Z,9.90
2022-09-01T17:38:54.102Z,9.60
2022-09-01T17:41:34.244Z,9.70
2022-09-01T17:44:15.745Z,9.70
2022-09-01T17:46:52.341Z,9.90
2022-09-01T17:49:28.459Z,9.70
2022-09-01T17:52:08.996Z,9.80
2022-09-01T17:54:47.621Z,9.90
2022-09-01T17:57:25.779Z,9.50
2022-09-01T17:59:59.544Z,10.00
2022-09-01T18:03:22.591Z,9.90
2022-09-01T18:06:00.882Z,10.30
2022-09-01T18:08:40.069Z,10.20
2022-09-01T18:11:14.498Z,10.40
2022-09-01T18:13:53.189Z,9.80
2022-09-01T18:16:26.789Z,10.20
2022-09-01T18:18:58.162Z,10.50
2022-09-01T18:21:35.534Z,10.90
2022-09-01T18:24:18.185Z,10.80
2022-09-01T18:26:49.999Z,11.00
2022-09-01T18:29:19.333Z,11.00
2022-09-01T18:32:09.395Z,10.80
2022-09-01T18:35:11.550Z,10.90
2022-09-01T18:37:51.455Z,11.30
2022-09-01T18:40:28.901Z,11.40
2022-09-01T18:43:09.439Z,11.80
2022-09-01T18:45:49.345Z,11.80
2022-09-01T18:48:33.377Z,11.60
2022-09-01T18:51:08.765Z,11.70
2022-09-01T18:53:47.448Z,11.90
2022-09-01T18:56:35.564Z,11.60
2022-09-01T18:59:23.784Z,12.70
2022-09-01T19:02:00.798Z,12.00
2022-09-01T19:04:35.979Z,11.60
2022-09-01T19:07:13.672Z,11.90
2022-09-01T19:09:49.701Z,12.20
2022-09-01T19:12:27.858Z,12.10
2022-09-01T19:15:04.692Z,12.30
2022-09-01T19:18:02.251Z,12.20
2022-09-01T19:20:42.603Z,12.30
2022-09-01T19:23:17.613Z,12.50
2022-09-01T19:25:46.522Z,12.50
2022-09-01T19:28:25.280Z,12.70
2022-09-01T19:31:01.568Z,12.50
2022-09-01T19:33:37.804Z,12.40
2022-09-01T19:36:13.557Z,12.40
2022-09-01T19:38:41.734Z,12.60
2022-09-01T19:41:18.344Z,12.50
2022-09-01T19:43:53.396Z,12.70
2022-09-01T19:46:32.230Z,12.80
2022-09-01T19:49:09.876Z,12.70
2022-09-01T19:51:50.477Z,12.50
2022-09-01T19:54:27.620Z,12.70
2022-09-01T19:57:04.309Z,12.60
2022-09-01T19:59:53.468Z,12.40
2022-09-01T20:02:31.399Z,12.60
2022-09-01T20:05:09.033Z,12.80
2022-09-01T20:07:44.082Z,12.60
2022-09-01T20:10:38.160Z,12.60
2022-09-01T20:13:35.349Z,12.70
2022-09-01T20:16:13.250Z,12.70
2022-09-01T20:18:48.400Z,12.70
2022-09-01T20:21:21.347Z,12.70
2022-09-01T20:23:57.419Z,12.60
2022-09-01T20:26:32.638Z,12.60
2022-09-01T20:29:08.765Z,12.80
2022-09-01T20:31:45.279Z,12.90
2022-09-01T20:34:22.492Z,12.60
2022-09-01T20:36:56.017Z,13.00
2022-09-01T20:39:52.652Z,12.90
2022-09-01T20:42:31.108Z,13.30
2022-09-01T20:45:02.318Z,13.30
2022-09-01T20:47:33.031Z,13.20
2022-09-01T20:50:04.817Z,13.20
2022-09-01T20:52:41.298Z,13.50
2022-09-01T20:55:16.019Z,13.60
2022-09-01T20:57:57.140Z,13.40
2022-09-01T21:00:27.805Z,13.50
2022-09-01T21:03:06.348Z,13.50
2022-09-01T21:05:49.632Z,13.60
2022-09-01T21:08:37.732Z,13.50
2022-09-01T21:11:23.164Z,13.90
2022-09-01T21:14:06.906Z,14.00
2022-09-01T21:16:47.563Z,14.20
2022-09-01T21:19:26.794Z,14.00
2022-09-01T21:22:05.520Z,14.40
2022-09-01T21:24:34.547Z,14.50
2022-09-01T21:27:07.504Z,14.80
2022-09-01T21:29:53.411Z,14.60
2022-09-01T21:32:22.615Z,14.80
2022-09-01T21:34:53.003Z,14.60
2022-09-01T21:37:23.649Z,15.10
2022-09-01T21:39:53.789Z,15.10
2022-09-01T21:42:27.197Z,15.10
2022-09-01T21:44:58.196Z,15.20
2022-09-01T21:47:27.301Z,15.10
2022-09-01T21:49:57.215Z,15.00
2022-09-01T21:52:25.541Z,15.30
2022-09-01T21:54:53.673Z,15.10
2022-09-01T21:57:22.965Z,15.40
2022-09-01T21:59:52.197Z,14.90
2022-09-01T22:02:20.972Z,15.70
2022-09-01T22:04:49.127Z,15.20
2022-09-01T22:07:21.036Z,14.80
2022-09-01T22:09:50.135Z,15.10
2022-09-01T22:12:18.465Z,15.40
2022-09-01T22:14:46.515Z,15.10
2022-09-01T22:17:14.547Z,15.20
2022-09-01T22:19:42.593Z,15.20
2022-09-01T22:22:13.121Z,15.30
2022-09-01T22:24:42.538Z,15.20
2022-09-01T22:27:10.633Z,14.90
2022-09-01T22:29:39.363Z,15.30
2022-09-01T22:32:07.542Z,16.00
2022-09-01T22:34:36.417Z,15.60
2022-09-01T22:37:05.541Z,15.90
2022-09-01T22:39:33.571Z,15.90
2022-09-01T22:42:03.772Z,16.10
2022-09-01T22:44:31.793Z,15.80
2022-09-01T22:47:00.215Z,16.40
2022-09-01T22:49:28.335Z,16.30
2022-09-01T22:51:56.468Z,16.90
2022-09-01T22:54:25.346Z,16.10
2022-09-01T22:56:53.918Z,16.40
2022-09-01T22:59:25.692Z,16.70
2022-09-01T23:01:54.746Z,16.80
2022-09-01T23:04:24.891Z,16.60
2022-09-01T23:06:54.785Z,16.80
2022-09-01T23:09:23.057Z,16.90
2022-09-01T23:11:51.465Z,16.80
2022-09-01T23:14:19.721Z,17.20
2022-09-01T23:16:51.324Z,17.10
2022-09-01T23:19:20.627Z,17.40
2022-09-01T23:21:49.063Z,17.00
2022-09-01T23:24:19.042Z,17.40
2022-09-01T23:26:48.497Z,17.40
2022-09-01T23:29:16.981Z,17.80
2022-09-01T23:31:45.234Z,17.90
2022-09-01T23:34:14.652Z,17.10
2022-09-01T23:36:42.792Z,17.20
2022-09-01T23:39:10.828Z,18.10
2022-09-01T23:41:39.836Z,17.80
2022-09-01T23:44:10.522Z,18.00
2022-09-01T23:46:42.494Z,18.00
2022-09-01T23:49:12.287Z,18.30
2022-09-01T23:51:42.261Z,17.80
2022-09-01T23:54:10.892Z,17.90
2022-09-01T23:56:40.183Z,18.10
2022-09-01T23:59:08.967Z,17.90
